Time;durP1;ratioP1;P1;durP2;ratioP2;P2;SDS_P1;SDS_P2;PMS_P1;PMS_P2;Temp;Humidity;BMP_temperature;BMP_pressure;BME280_temperature;BME280_humidity;BME280_pressure;Samples;Min_cycle;Max_cycle;Signal;HPM_P1;HPM_P2
2024/03/19 00:00:37;;;;;;;17.63;9.65;;;230.40;2252.80;;;;;;4973142;28;20495;-77
2024/03/19 00:03:03;;;;;;;21.05;10.50;;;230.50;2252.80;;;;;;4975994;28;20488;-79
2024/03/19 00:05:29;;;;;;;17.15;9.80;;;230.60;2252.80;;;;;;4976832;28;20084;-75
2024/03/19 00:07:55;;;;;;;21.88;10.32;;;230.50;2252.80;;;;;;4993647;28;20053;-77
2024/03/19 00:10:20;;;;;;;17.77;10.65;;;230.50;2252.80;;;;;;4991424;28;20065;-75
2024/03/19 00:12:46;;;;;;;18.52;11.63;;;230.40;2252.80;;;;;;4990952;28;20027;-75
2024/03/19 00:15:13;;;;;;;;;;;230.50;2252.80;;;;;;4997024;28;20035;-75
2024/03/19 00:17:39;;;;;;;15.85;8.02;;;230.60;2252.80;;;;;;4988831;28;19949;-75
2024/03/19 00:20:05;;;;;;;;;;;230.50;2252.80;;;;;;4974808;28;20046;-75
2024/03/19 00:22:34;;;;;;;20.85;10.55;;;230.50;2252.80;;;;;;4990174;28;19913;-75
2024/03/19 00:25:00;;;;;;;15.73;10.80;;;230.50;2252.80;;;;;;4990706;28;20388;-75
2024/03/19 00:27:27;;;;;;;18.88;10.77;;;205.70;2252.80;;;;;;4992415;28;20033;-75
2024/03/19 00:29:53;;;;;;;19.73;10.68;;;205.60;2252.80;;;;;;4975452;28;20046;-81
2024/03/19 00:32:20;;;;;;;21.45;10.10;;;205.50;2252.80;;;;;;5002050;28;20050;-82
2024/03/19 00:34:47;;;;;;;21.45;11.65;;;205.40;2252.80;;;;;;4993262;28;20041;-75
2024/03/19 00:37:13;;;;;;;19.80;11.20;;;205.20;2252.80;;;;;;4996012;28;20046;-75
2024/03/19 00:39:39;;;;;;;21.45;11.02;;;205.10;2252.80;;;;;;4995432;28;20108;-76
2024/03/19 00:42:04;;;;;;;;;;;205.10;2252.80;;;;;;4996246;28;20361;-75
2024/03/19 00:44:30;;;;;;;22.77;10.20;;;204.80;2252.80;;;;;;5000912;28;19988;-75
2024/03/19 00:46:57;;;;;;;;;;;180.10;2252.80;;;;;;4979174;28;20034;-77
2024/03/19 00:49:24;;;;;;;20.20;9.95;;;180.10;2252.80;;;;;;4996823;28;19964;-75
2024/03/19 00:51:50;;;;;;;19.00;8.75;;;179.90;2252.80;;;;;;5000749;28;20034;-75
2024/03/19 00:54:16;;;;;;;22.27;10.00;;;179.80;2252.80;;;;;;4999596;28;20026;-75
2024/03/19 00:56:42;;;;;;;15.80;9.70;;;179.50;2252.80;;;;;;5000896;28;20027;-81
2024/03/19 00:59:07;;;;;;;14.50;7.90;;;179.60;2252.80;;;;;;4996335;28;20041;-75
2024/03/19 01:01:35;;;;;;;;;;;179.50;2252.80;;;;;;4995334;28;20052;-75
2024/03/19 01:04:05;;;;;;;15.95;9.52;;;179.40;2252.80;;;;;;5001728;28;19921;-75
2024/03/19 01:06:36;;;;;;;17.83;9.48;;;179.50;2252.80;;;;;;4996232;28;20383;-77
2024/03/19 01:09:14;;;;;;;19.38;9.65;;;179.40;2252.80;;;;;;4996414;28;20077;-76
2024/03/19 01:11:44;;;;;;;22.00;8.90;;;179.30;2252.80;;;;;;4979458;28;20030;-75
2024/03/19 01:14:10;;;;;;;15.35;8.85;;;179.20;2252.80;;;;;;4987629;28;20038;-74
2024/03/19 01:16:36;;;;;;;16.02;9.55;;;179.20;2252.80;;;;;;4995105;28;20022;-76
2024/03/19 01:19:02;;;;;;;15.90;9.45;;;179.20;2252.80;;;;;;4995443;28;20018;-75
2024/03/19 01:21:28;;;;;;;17.50;9.43;;;179.30;2252.80;;;;;;4995457;28;20034;-83
2024/03/19 01:23:54;;;;;;;;;;;179.20;2252.80;;;;;;4995742;28;20085;-76
2024/03/19 01:26:20;;;;;;;18.42;9.25;;;154.50;2252.80;;;;;;4990678;28;19917;-76
2024/03/19 01:28:45;;;;;;;;;;;154.30;2252.80;;;;;;4979147;28;20038;-78
2024/03/19 01:31:11;;;;;;;19.58;10.38;;;154.10;2252.80;;;;;;4996552;28;19917;-76
2024/03/19 01:33:37;;;;;;;;;;;154.30;2252.80;;;;;;4995474;28;20460;-75
2024/03/19 01:36:04;;;;;;;19.25;10.15;;;154.10;2252.80;;;;;;4995331;28;19912;-81
2024/03/19 01:38:29;;;;;;;19.25;8.75;;;154.20;2252.80;;;;;;4998607;28;20496;-76
2024/03/19 01:40:56;;;;;;;;;;;154.10;2252.80;;;;;;4979309;28;20117;-80
2024/03/19 01:43:22;;;;;;;15.50;8.63;;;154.20;2252.80;;;;;;4995999;28;19993;-75
2024/03/19 01:46:16;;;;;;;14.63;8.20;;;154.30;2252.80;;;;;;4995945;28;20027;-76
2024/03/19 01:48:41;;;;;;;14.88;9.40;;;154.30;2252.80;;;;;;4978686;28;20109;-76
2024/03/19 01:51:08;;;;;;;;;;;154.20;2252.80;;;;;;4996408;28;20110;-76
2024/03/19 01:53:34;;;;;;;15.57;8.13;;;154.20;2252.80;;;;;;4994862;28;19906;-75
2024/03/19 01:55:59;;;;;;;;;;;154.10;2252.80;;;;;;4977931;28;20076;-80
2024/03/19 01:58:28;;;;;;;15.18;8.90;;;154.10;2252.80;;;;;;4995825;28;19961;-75
2024/03/19 02:00:54;;;;;;;13.65;7.95;;;154.00;2252.80;;;;;;4994700;28;20427;-76
2024/03/19 02:03:19;;;;;;;;;;;153.80;2252.80;;;;;;4996226;28;20059;-75
2024/03/19 02:05:46;;;;;;;15.35;8.13;;;153.90;2252.80;;;;;;4994585;28;19905;-79
2024/03/19 02:08:13;;;;;;;14.93;8.35;;;153.80;2252.80;;;;;;4978361;28;20097;-75
2024/03/19 02:10:38;;;;;;;;;;;153.70;2252.80;;;;;;4995243;28;20427;-79
2024/03/19 02:13:05;;;;;;;14.48;8.40;;;153.60;2252.80;;;;;;4986168;28;19914;-77
2024/03/19 02:15:31;;;;;;;13.57;7.88;;;153.60;2252.80;;;;;;4995660;28;20037;-80
2024/03/19 02:17:57;;;;;;;15.88;8.50;;;153.60;2252.80;;;;;;4995644;28;20022;-75
2024/03/19 02:20:23;;;;;;;;;;;153.60;2252.80;;;;;;4994528;28;20109;-76
2024/03/19 02:22:49;;;;;;;15.63;8.23;;;128.80;2252.80;;;;;;4995518;28;19913;-82
2024/03/19 02:25:16;;;;;;;17.20;8.68;;;128.90;2252.80;;;;;;4995299;28;20022;-75
2024/03/19 02:27:46;;;;;;;13.02;7.50;;;128.70;2252.80;;;;;;4993888;28;20030;-75
2024/03/19 02:30:13;;;;;;;14.88;8.00;;;128.70;2252.80;;;;;;4995549;28;20041;-77
2024/03/19 02:32:39;;;;;;;13.38;7.47;;;128.60;2252.80;;;;;;4993644;28;20041;-75
2024/03/19 02:35:06;;;;;;;14.60;7.35;;;128.50;2252.80;;;;;;4994804;28;20026;-76
2024/03/19 02:37:32;;;;;;;15.65;8.02;;;128.50;2252.80;;;;;;4977174;28;20031;-75
2024/03/19 02:39:59;;;;;;;;;;;128.50;2252.80;;;;;;4995824;28;20081;-84
2024/03/19 02:42:25;;;;;;;13.52;8.35;;;128.40;2252.80;;;;;;4993497;28;20434;-77
2024/03/19 02:44:51;;;;;;;;;;;128.40;2252.80;;;;;;4995471;28;20023;-78
2024/03/19 02:47:17;;;;;;;13.20;6.65;;;128.30;2252.80;;;;;;4994966;28;19961;-76
2024/03/19 02:49:43;;;;;;;;;;;128.20;2252.80;;;;;;4977954;28;20030;-76
2024/03/19 02:52:10;;;;;;;14.85;7.78;;;128.20;2252.80;;;;;;4994832;28;19913;-80
2024/03/19 02:54:37;;;;;;;13.70;7.72;;;103.30;2227.20;;;;;;4976780;28;20539;-81
2024/03/19 02:57:03;;;;;;;12.65;6.90;;;128.00;2252.80;;;;;;4994590;28;20113;-75
2024/03/19 02:59:29;;;;;;;15.25;7.05;;;128.30;2252.80;;;;;;4994708;28;20033;-78
2024/03/19 03:01:56;;;;;;;;;;;128.30;2252.80;;;;;;4994367;28;20030;-75
2024/03/19 03:04:22;;;;;;;15.68;8.25;;;128.20;2252.80;;;;;;4993483;28;19940;-77
2024/03/19 03:06:49;;;;;;;18.67;8.85;;;128.30;2252.80;;;;;;4994729;28;20026;-76
2024/03/19 03:09:15;;;;;;;13.85;7.00;;;128.10;2252.80;;;;;;4977372;28;20023;-77
2024/03/19 03:11:40;;;;;;;;;;;103.30;2227.20;;;;;;4995121;28;20053;-76
2024/03/19 03:14:06;;;;;;;15.07;7.28;;;128.10;2252.80;;;;;;4994398;28;19918;-79
2024/03/19 03:16:32;;;;;;;;;;;128.20;2252.80;;;;;;4977351;28;20030;-83
2024/03/19 03:18:58;;;;;;;12.52;6.55;;;128.20;2252.80;;;;;;4993439;28;19909;-78
2024/03/19 03:21:24;;;;;;;;;;;128.20;2252.80;;;;;;4993407;28;20045;-76
2024/03/19 03:23:49;;;;;;;11.90;6.50;;;128.10;2252.80;;;;;;4994105;28;19913;-76
2024/03/19 03:26:15;;;;;;;;;;;128.00;2252.80;;;;;;4993418;28;20026;-81
2024/03/19 03:28:41;;;;;;;17.27;8.10;;;128.00;2252.80;;;;;;4993335;28;19917;-79
2024/03/19 03:31:07;;;;;;;;;;;128.00;2252.80;;;;;;4994724;28;20035;-79
2024/03/19 03:33:33;;;;;;;14.15;7.68;;;103.20;2227.20;;;;;;4994345;28;19945;-75
2024/03/19 03:35:59;;;;;;;;;;;128.00;2252.80;;;;;;4981651;28;20053;-80
2024/03/19 03:38:25;;;;;;;14.43;7.55;;;103.30;2227.20;;;;;;4993921;28;19906;-79
2024/03/19 03:40:53;;;;;;;;;;;103.30;2227.20;;;;;;4994342;28;20085;-75
2024/03/19 03:43:20;;;;;;;12.90;7.38;;;128.00;2252.80;;;;;;4992755;28;19910;-75
2024/03/19 03:45:46;;;;;;;15.05;6.78;;;128.00;2252.80;;;;;;4976699;28;20061;-76
2024/03/19 03:48:12;;;;;;;11.95;7.15;;;103.30;2227.20;;;;;;4992839;28;20033;-77
2024/03/19 03:50:37;;;;;;;;;;;103.30;2227.20;;;;;;4993968;28;20035;-75
2024/03/19 03:53:03;;;;;;;13.50;7.07;;;103.20;2227.20;;;;;;4993928;28;20303;-75
2024/03/19 03:55:29;;;;;;;;;;;103.10;2227.20;;;;;;4993586;28;20391;-75
2024/03/19 03:57:55;;;;;;;11.30;7.03;;;103.10;2227.20;;;;;;4992683;28;19913;-75
2024/03/19 04:00:22;;;;;;;12.95;6.53;;;103.00;2227.20;;;;;;4976677;28;20431;-75
2024/03/19 04:02:48;;;;;;;13.57;6.28;;;102.90;2227.20;;;;;;4992874;28;20094;-76
2024/03/19 04:05:15;;;;;;;12.23;6.72;;;102.90;2227.20;;;;;;4976509;28;20030;-76
2024/03/19 04:07:42;;;;;;;12.48;6.03;;;103.10;2227.20;;;;;;4997074;28;20026;-80
2024/03/19 04:10:13;;;;;;;11.85;7.18;;;102.90;2227.20;;;;;;4996716;28;20077;-76
2024/03/19 04:12:40;;;;;;;14.40;7.57;;;103.10;2227.20;;;;;;4997626;28;20042;-76
2024/03/19 04:15:07;;;;;;;11.65;6.00;;;103.00;2227.20;;;;;;4997628;28;20022;-84
2024/03/19 04:17:33;;;;;;;14.38;6.38;;;103.10;2227.20;;;;;;4996252;28;20030;-75
2024/03/19 04:19:59;;;;;;;12.00;5.85;;;103.00;2227.20;;;;;;4985046;28;20024;-75
2024/03/19 04:22:26;;;;;;;11.93;5.70;;;103.00;2227.20;;;;;;4996353;28;20105;-75
2024/03/19 04:24:52;;;;;;;10.85;6.35;;;103.00;2227.20;;;;;;4997309;28;20056;-75
2024/03/19 04:27:18;;;;;;;11.48;6.43;;;103.10;2227.20;;;;;;4997532;28;20093;-75
2024/03/19 04:29:44;;;;;;;;;;;103.10;2227.20;;;;;;4980279;28;20098;-76
2024/03/19 04:32:10;;;;;;;12.40;6.32;;;103.10;2227.20;;;;;;4996593;28;20348;-76
2024/03/19 04:34:35;;;;;;;;;;;103.00;2227.20;;;;;;4997396;28;20064;-75
2024/03/19 04:37:02;;;;;;;11.32;5.78;;;103.10;2227.20;;;;;;4997615;28;19964;-76
2024/03/19 04:39:27;;;;;;;11.82;6.25;;;103.30;2227.20;;;;;;4984144;28;20026;-76
2024/03/19 04:41:53;;;;;;;;;;;103.30;2227.20;;;;;;4997613;28;20018;-75
2024/03/19 04:44:19;;;;;;;11.10;6.00;;;103.30;2227.20;;;;;;4982587;28;19917;-77
2024/03/19 04:46:45;;;;;;;12.75;6.03;;;128.00;2252.80;;;;;;4979878;28;20037;-75
2024/03/19 04:49:11;;;;;;;;;;;103.30;2227.20;;;;;;4997494;28;20077;-75
2024/03/19 04:51:38;;;;;;;10.90;6.15;;;128.00;2252.80;;;;;;4980277;28;19910;-77
2024/03/19 04:54:04;;;;;;;11.32;5.68;;;128.00;2252.80;;;;;;4979176;28;20031;-75
2024/03/19 04:56:30;;;;;;;;;;;103.30;2227.20;;;;;;4997442;28;20076;-84
2024/03/19 04:58:55;;;;;;;11.00;6.05;;;128.10;2252.80;;;;;;4996895;28;19952;-77
2024/03/19 05:01:21;;;;;;;;;;;128.20;2252.80;;;;;;4996255;28;20117;-78
2024/03/19 05:03:47;;;;;;;13.68;5.47;;;128.10;2252.80;;;;;;4996717;28;19933;-76
2024/03/19 05:06:12;;;;;;;;;;;128.20;2252.80;;;;;;4997131;28;20029;-75
2024/03/19 05:08:39;;;;;;;10.98;5.45;;;128.20;2252.80;;;;;;4995598;28;19960;-76
2024/03/19 05:11:05;;;;;;;14.95;6.00;;;128.30;2252.80;;;;;;4996616;28;20034;-76
2024/03/19 05:13:31;;;;;;;;;;;128.40;2252.80;;;;;;4996635;28;20484;-79
2024/03/19 05:15:58;;;;;;;11.75;5.65;;;128.50;2252.80;;;;;;4995160;28;19906;-76
2024/03/19 05:18:24;;;;;;;9.82;5.63;;;128.60;2252.80;;;;;;4974996;28;20077;-76
2024/03/19 05:20:50;;;;;;;;;;;128.70;2252.80;;;;;;4988298;28;20037;-75
2024/03/19 05:23:16;;;;;;;9.80;5.18;;;128.80;2252.80;;;;;;4992342;28;19906;-76
2024/03/19 05:25:42;;;;;;;9.43;4.90;;;128.90;2252.80;;;;;;4986470;28;20034;-76
2024/03/19 05:28:11;;;;;;;10.65;4.95;;;128.80;2252.80;;;;;;4995760;28;20022;-75
2024/03/19 05:30:37;;;;;;;8.02;4.97;;;153.60;2252.80;;;;;;4980921;28;20061;-75
2024/03/19 05:33:02;;;;;;;;;;;128.90;2252.80;;;;;;4995099;28;20101;-80
2024/03/19 05:35:28;;;;;;;9.80;4.07;;;128.90;2252.80;;;;;;4994209;28;20004;-76
2024/03/19 05:37:54;;;;;;;;;;;128.90;2252.80;;;;;;4996066;28;20026;-75
2024/03/19 05:40:20;;;;;;;10.48;4.45;;;128.80;2252.80;;;;;;4992636;28;19917;-78
2024/03/19 05:42:46;;;;;;;9.98;5.03;;;128.90;2252.80;;;;;;4994143;28;20042;-75
2024/03/19 05:45:12;;;;;;;;;;;153.60;2252.80;;;;;;4989647;28;20026;-81
2024/03/19 05:47:39;;;;;;;13.30;5.07;;;153.70;2252.80;;;;;;4994287;28;19928;-76
2024/03/19 05:50:08;;;;;;;13.10;4.95;;;153.80;2252.80;;;;;;4967197;28;20026;-76
2024/03/19 05:52:34;;;;;;;7.57;4.38;;;153.70;2252.80;;;;;;4992816;28;20053;-75
2024/03/19 05:55:00;;;;;;;11.15;5.22;;;153.80;2252.80;;;;;;4995340;28;20022;-75
2024/03/19 05:57:26;;;;;;;;;;;153.80;2252.80;;;;;;4988963;28;20096;-75
2024/03/19 05:59:52;;;;;;;10.30;4.95;;;153.80;2252.80;;;;;;4995480;28;19988;-75
2024/03/19 06:02:17;;;;;;;;;;;153.80;2252.80;;;;;;4993421;28;20369;-76
2024/03/19 06:04:43;;;;;;;7.05;3.92;;;153.80;2252.80;;;;;;4993722;28;20370;-75
2024/03/19 06:07:09;;;;;;;;;;;154.00;2252.80;;;;;;4995327;28;20472;-77
2024/03/19 06:09:41;;;;;;;7.72;4.88;;;153.90;2252.80;;;;;;4974928;28;20375;-75
2024/03/19 06:12:07;;;;;;;10.73;4.18;;;153.90;2252.80;;;;;;4977590;28;20506;-75
2024/03/19 06:14:32;;;;;;;;;;;153.90;2252.80;;;;;;4977540;28;20046;-83
2024/03/19 06:16:58;;;;;;;10.13;4.32;;;154.10;2252.80;;;;;;4995136;28;19910;-75
2024/03/19 06:19:24;;;;;;;;;;;154.00;2252.80;;;;;;4998003;28;20081;-79
2024/03/19 06:21:49;;;;;;;6.63;3.70;;;154.00;2252.80;;;;;;4989861;28;19933;-79
2024/03/19 06:24:15;;;;;;;;;;;154.00;2252.80;;;;;;4993522;28;20030;-79
2024/03/19 06:26:41;;;;;;;7.93;4.18;;;154.10;2252.80;;;;;;4994898;28;20378;-77
2024/03/19 06:29:06;;;;;;;;;;;154.20;2252.80;;;;;;4977367;28;20047;-81
2024/03/19 06:31:32;;;;;;;7.13;4.47;;;154.40;2252.80;;;;;;4977248;28;20386;-76
2024/03/19 06:33:58;;;;;;;;;;;154.40;2252.80;;;;;;4994056;28;20026;-76
2024/03/19 06:36:24;;;;;;;8.60;4.25;;;154.40;2252.80;;;;;;4977521;28;19905;-77
2024/03/19 06:38:50;;;;;;;8.55;4.82;;;154.50;2252.80;;;;;;4977020;28;20351;-79
2024/03/19 06:41:16;;;;;;;8.73;4.78;;;154.50;2252.80;;;;;;4992138;28;20030;-79
2024/03/19 06:43:42;;;;;;;;;;;179.40;2252.80;;;;;;4977353;28;20034;-76
2024/03/19 06:46:08;;;;;;;8.43;4.88;;;179.40;2252.80;;;;;;4977309;28;19910;-81
2024/03/19 06:48:34;;;;;;;9.10;4.93;;;179.40;2252.80;;;;;;4991349;28;20037;-79
2024/03/19 06:51:00;;;;;;;;;;;179.60;2252.80;;;;;;4977094;28;20125;-77
2024/03/19 06:53:27;;;;;;;10.55;4.82;;;179.60;2252.80;;;;;;4973244;28;19910;-77
2024/03/19 06:55:56;;;;;;;9.80;4.88;;;179.70;2252.80;;;;;;4994238;28;20464;-76
2024/03/19 06:58:22;;;;;;;8.30;4.60;;;179.70;2227.20;;;;;;4976427;28;20030;-76
2024/03/19 07:00:51;;;;;;;8.23;4.55;;;179.70;2201.60;;;;;;4992754;28;20484;-81
2024/03/19 07:03:18;;;;;;;8.75;4.35;;;179.80;2227.20;;;;;;4976581;28;20464;-79
2024/03/19 07:05:45;;;;;;;7.57;4.28;;;205.00;2201.60;;;;;;4977559;28;20469;-76
2024/03/19 07:08:12;;;;;;;7.65;4.97;;;180.10;2176.00;;;;;;4993790;28;20030;-77
2024/03/19 07:10:38;;;;;;;7.22;3.75;;;180.00;2176.00;;;;;;4993278;28;20042;-78
2024/03/19 07:13:05;;;;;;;8.18;4.28;;;180.00;2176.00;;;;;;4993700;28;20036;-80
2024/03/19 07:15:32;;;;;;;8.43;4.45;;;180.10;2150.40;;;;;;4993630;28;20466;-78
2024/03/19 07:17:58;;;;;;;6.88;4.63;;;180.10;2150.40;;;;;;4988211;28;20037;-74
2024/03/19 07:20:24;;;;;;;;;;;180.10;2176.00;;;;;;4991882;28;20125;-76
2024/03/19 07:22:50;;;;;;;7.53;4.20;;;205.00;2099.20;;;;;;4993631;28;19909;-76
2024/03/19 07:25:17;;;;;;;6.95;3.90;;;204.80;2073.60;;;;;;4975142;28;20022;-77
2024/03/19 07:27:43;;;;;;;7.00;4.35;;;180.10;2124.80;;;;;;4993131;28;21237;-76
2024/03/19 07:30:11;;;;;;;8.05;4.78;;;204.90;2124.80;;;;;;4992582;28;20034;-77
2024/03/19 07:32:40;;;;;;;14.38;4.97;;;205.30;2099.20;;;;;;4978446;28;20080;-75
2024/03/19 07:35:08;;;;;;;5.85;3.83;;;205.40;2022.40;;;;;;4976000;28;20042;-76
2024/03/19 07:37:36;;;;;;;6.30;3.90;;;205.40;1996.80;;;;;;4980456;28;20149;-76
2024/03/19 07:40:03;;;;;;;9.07;4.82;;;205.40;1996.80;;;;;;4975837;28;20118;-76
2024/03/19 07:42:29;;;;;;;10.35;5.68;;;205.60;1945.60;;;;;;4991784;28;20085;-77
2024/03/19 07:44:55;;;;;;;7.60;4.13;;;205.50;1971.20;;;;;;4975709;28;20034;-83
2024/03/19 07:47:20;;;;;;;;;;;230.50;1945.60;;;;;;4976340;28;20042;-77
2024/03/19 07:49:46;;;;;;;8.65;4.25;;;230.40;1920.00;;;;;;4992010;28;19986;-77
2024/03/19 07:52:14;;;;;;;8.10;4.47;;;205.70;1894.40;;;;;;4976192;28;20053;-81
2024/03/19 07:54:40;;;;;;;8.07;4.38;;;205.70;1920.00;;;;;;4976102;28;20034;-77
2024/03/19 07:57:06;;;;;;;8.25;4.53;;;205.40;1920.00;;;;;;4984691;28;20439;-76
2024/03/19 07:59:32;;;;;;;7.22;4.00;;;205.70;1920.00;;;;;;4993006;28;20392;-76
2024/03/19 08:01:58;;;;;;;7.20;4.25;;;205.70;1920.00;;;;;;4993482;28;20041;-85
2024/03/19 08:04:26;;;;;;;7.50;4.00;;;205.70;1868.80;;;;;;4992962;28;20050;-77
2024/03/19 08:06:52;;;;;;;8.57;4.22;;;230.40;1894.40;;;;;;4993116;28;20038;-76
2024/03/19 08:09:18;;;;;;;9.38;6.28;;;230.60;1868.80;;;;;;4993103;28;20476;-78
2024/03/19 08:11:44;;;;;;;6.53;4.60;;;230.90;1843.20;;;;;;4975717;28;20045;-78
2024/03/19 08:14:10;;;;;;;;;;;230.80;1843.20;;;;;;4972451;28;20034;-77
2024/03/19 08:16:36;;;;;;;10.52;4.15;;;231.10;1792.00;;;;;;4992063;28;19920;-76
2024/03/19 08:19:03;;;;;;;8.13;4.53;;;230.90;1792.00;;;;;;4992351;28;20026;-79
2024/03/19 08:21:29;;;;;;;6.68;3.70;;;230.80;1817.60;;;;;;4980499;28;20039;-80
2024/03/19 08:23:55;;;;;;;8.35;4.32;;;230.80;1817.60;;;;;;4991443;28;20033;-79
2024/03/19 08:26:20;;;;;;;9.05;3.83;;;230.90;1792.00;;;;;;4982938;28;20030;-81
2024/03/19 08:28:46;;;;;;;;;;;231.10;1817.60;;;;;;4975365;28;20037;-77
2024/03/19 08:31:12;;;;;;;13.68;5.05;;;231.10;1817.60;;;;;;4980773;28;19924;-77
2024/03/19 08:33:39;;;;;;;7.82;4.20;;;231.10;1817.60;;;;;;4991645;28;20027;-77
2024/03/19 08:36:06;;;;;;;8.27;4.30;;;256.20;1740.80;;;;;;4988810;28;20137;-77
2024/03/19 08:38:35;;;;;;;8.07;4.63;;;256.30;1715.20;;;;;;4992899;28;20453;-79
2024/03/19 08:41:04;;;;;;;11.05;4.55;;;256.30;1715.20;;;;;;4992269;28;20030;-78
2024/03/19 08:43:30;;;;;;;8.90;3.92;;;256.40;1715.20;;;;;;4990684;28;20034;-82
2024/03/19 08:45:56;;;;;;;10.02;4.30;;;231.30;1766.40;;;;;;4992787;28;20034;-78
2024/03/19 08:48:22;;;;;;;8.82;4.45;;;256.20;1715.20;;;;;;4993026;28;20027;-75
2024/03/19 08:50:48;;;;;;;8.43;4.63;;;256.20;1715.20;;;;;;4992517;28;20101;-77
2024/03/19 08:53:14;;;;;;;15.88;4.70;;;256.70;1689.60;;;;;;4994103;28;20034;-84
2024/03/19 08:55:42;;;;;;;8.68;4.57;;;256.50;1715.20;;;;;;4997173;28;20037;-79
2024/03/19 08:58:09;;;;;;;7.15;4.43;;;256.70;1715.20;;;;;;4995371;28;20086;-76
2024/03/19 09:00:35;;;;;;;14.90;5.18;;;256.70;1715.20;;;;;;4994356;28;20035;-78
2024/03/19 09:03:07;;;;;;;12.80;5.70;;;281.80;1689.60;;;;;;4994306;28;20039;-78
2024/03/19 09:05:32;;;;;;;8.10;5.68;;;281.80;1664.00;;;;;;4995255;28;20031;-76
2024/03/19 09:07:58;;;;;;;7.38;4.68;;;282.00;1664.00;;;;;;4993649;28;20032;-76
2024/03/19 09:10:24;;;;;;;6.78;4.20;;;282.50;1664.00;;;;;;4994790;28;20074;-75
2024/03/19 09:12:50;;;;;;;9.45;4.85;;;282.50;1612.80;;;;;;4995733;28;20500;-75
2024/03/19 09:15:16;;;;;;;6.90;4.57;;;282.50;1612.80;;;;;;4978450;28;20030;-74
2024/03/19 09:17:42;;;;;;;18.75;4.82;;;282.20;1638.40;;;;;;4994640;28;20049;-75
2024/03/19 09:20:09;;;;;;;;;;;307.60;1587.20;;;;;;4996508;28;20100;-76
2024/03/19 09:22:34;;;;;;;;;;;307.50;1536.00;;;;;;4978826;28;19910;-76
2024/03/19 09:25:00;;;;;;;5.95;3.25;;;307.70;1587.20;;;;;;4996176;28;20366;-75
2024/03/19 09:27:26;;;;;;;4.95;3.83;;;307.50;1536.00;;;;;;4995754;28;20030;-77
2024/03/19 09:29:52;;;;;;;6.40;3.75;;;307.80;1536.00;;;;;;4995181;28;20514;-76
2024/03/19 09:32:19;;;;;;;9.55;4.70;;;307.60;1536.00;;;;;;4994280;28;20030;-77
2024/03/19 09:34:45;;;;;;;14.27;4.18;;;308.00;1510.40;;;;;;4980751;28;20041;-75
2024/03/19 09:37:10;;;;;;;6.20;3.70;;;332.90;1484.80;;;;;;4993933;28;20403;-75
2024/03/19 09:39:36;;;;;;;6.40;3.78;;;333.30;1459.20;;;;;;4990061;28;20033;-76
2024/03/19 09:42:07;;;;;;;7.45;4.28;;;333.60;1484.80;;;;;;4994612;28;20132;-80
2024/03/19 09:44:33;;;;;;;5.20;3.03;;;358.70;1433.60;;;;;;4991145;28;20031;-81
2024/03/19 09:47:04;;;;;;;6.05;3.13;;;358.80;1356.80;;;;;;4995869;28;20122;-77
2024/03/19 09:49:34;;;;;;;4.32;2.83;;;358.60;1382.40;;;;;;4991293;28;20026;-78
2024/03/19 09:52:06;;;;;;;6.63;3.55;;;358.40;1356.80;;;;;;4995474;28;20026;-78
2024/03/19 09:54:32;;;;;;;11.18;4.00;;;359.10;1331.20;;;;;;4978727;28;20479;-81
2024/03/19 09:57:00;;;;;;;4.78;2.67;;;358.70;1331.20;;;;;;4987797;28;20101;-77
2024/03/19 09:59:28;;;;;;;4.28;2.60;;;358.90;1331.20;;;;;;4994386;28;20026;-75
2024/03/19 10:01:55;;;;;;;5.35;2.72;;;359.20;1305.60;;;;;;4993538;28;20033;-78
2024/03/19 10:04:22;;;;;;;6.13;2.50;;;359.10;1305.60;;;;;;4977486;28;20065;-77
2024/03/19 10:06:48;;;;;;;5.57;3.00;;;384.10;1254.40;;;;;;4995371;28;20439;-77
2024/03/19 10:09:16;;;;;;;5.10;3.05;;;384.40;1280.00;;;;;;4975603;28;20077;-76
2024/03/19 10:11:43;;;;;;;7.35;3.70;;;359.30;1305.60;;;;;;4995332;28;20069;-76
2024/03/19 10:14:14;;;;;;;5.65;2.85;;;384.80;1254.40;;;;;;4992074;28;20018;-76
2024/03/19 10:16:50;;;;;;;3.92;2.53;;;409.70;1228.80;;;;;;4992771;28;20031;-75
2024/03/19 10:19:19;;;;;;;4.65;2.38;;;384.60;1203.20;;;;;;4977392;28;20498;-75
2024/03/19 10:21:45;;;;;;;4.97;2.08;;;384.70;1177.60;;;;;;4995027;28;20080;-77
2024/03/19 10:24:16;;;;;;;3.90;2.40;;;384.40;1177.60;;;;;;4991167;28;20033;-80
2024/03/19 10:26:46;;;;;;;6.95;3.60;;;359.30;1228.80;;;;;;4993994;28;20038;-82
2024/03/19 10:29:14;;;;;;;9.98;3.40;;;359.00;1254.40;;;;;;4993014;28;20034;-77
2024/03/19 10:31:44;;;;;;;4.43;2.80;;;384.50;1254.40;;;;;;4977097;28;20198;-78
2024/03/19 10:34:19;;;;;;;6.30;3.92;;;409.60;1254.40;;;;;;4994543;28;20471;-78
2024/03/19 10:36:51;;;;;;;7.65;3.63;;;384.40;1203.20;;;;;;4990365;28;20026;-78
2024/03/19 10:39:22;;;;;;;6.47;3.03;;;359.10;1228.80;;;;;;4977260;28;20185;-79
2024/03/19 10:41:51;;;;;;;5.15;3.55;;;358.90;1228.80;;;;;;4977542;28;20122;-80
2024/03/19 10:44:19;;;;;;;5.05;2.90;;;358.70;1280.00;;;;;;4977315;28;20506;-77
2024/03/19 10:46:49;;;;;;;4.63;2.83;;;358.90;1254.40;;;;;;4977221;28;20042;-77
2024/03/19 10:49:17;;;;;;;6.32;3.38;;;358.70;1280.00;;;;;;4994146;28;20556;-76
2024/03/19 10:52:16;;;;;;;10.68;3.20;;;358.50;1280.00;;;;;;4994714;28;20034;-77
2024/03/19 10:54:46;;;;;;;4.95;3.10;;;358.50;1305.60;;;;;;4990240;28;20037;-76
2024/03/19 10:57:17;;;;;;;4.75;2.78;;;358.50;1280.00;;;;;;4994079;28;20043;-79
2024/03/19 10:59:44;;;;;;;3.75;2.90;;;333.60;1305.60;;;;;;4976033;28;20034;-76
2024/03/19 11:02:19;;;;;;;5.65;3.10;;;358.90;1280.00;;;;;;4979180;28;20065;-75
2024/03/19 11:04:54;;;;;;;4.88;3.03;;;359.10;1228.80;;;;;;4986587;28;20472;-76
2024/03/19 11:07:23;;;;;;;5.82;3.78;;;384.00;1228.80;;;;;;4991319;28;20026;-75
2024/03/19 11:09:53;;;;;;;6.03;3.97;;;384.30;1228.80;;;;;;4982407;28;20034;-75
2024/03/19 11:12:24;;;;;;;5.60;2.97;;;384.60;1203.20;;;;;;4975213;28;20037;-81
2024/03/19 11:14:59;;;;;;;9.80;3.88;;;409.70;1177.60;;;;;;4989936;28;20169;-75
2024/03/19 11:17:28;;;;;;;10.77;4.17;;;409.60;1203.20;;;;;;4972443;28;20018;-75
2024/03/19 11:19:55;;;;;;;7.55;3.63;;;384.90;1152.00;;;;;;4993942;28;20030;-75
2024/03/19 11:22:23;;;;;;;7.63;3.53;;;409.60;1152.00;;;;;;4993718;28;20392;-75
2024/03/19 11:24:51;;;;;;;7.88;3.45;;;410.10;1177.60;;;;;;4994260;28;20023;-75
2024/03/19 11:27:18;;;;;;;4.05;2.60;;;384.50;1203.20;;;;;;4993961;28;20030;-88
2024/03/19 11:29:46;;;;;;;5.20;3.33;;;384.50;1152.00;;;;;;4993248;28;20031;-74
2024/03/19 11:32:26;;;;;;;9.55;4.40;;;384.40;1152.00;;;;;;4993767;28;20050;-76
2024/03/19 11:34:52;;;;;;;5.68;3.67;;;409.60;1177.60;;;;;;4982849;28;20038;-75
2024/03/19 11:37:18;;;;;;;7.82;3.70;;;384.90;1126.40;;;;;;4993510;28;20022;-75
2024/03/19 11:39:45;;;;;;;8.45;4.03;;;409.90;1152.00;;;;;;4993581;28;20033;-78
2024/03/19 11:42:13;;;;;;;6.80;3.20;;;409.90;1152.00;;;;;;4993731;28;20030;-80
2024/03/19 11:44:39;;;;;;;11.50;5.28;;;409.90;1152.00;;;;;;4992815;28;20058;-85
2024/03/19 11:47:06;;;;;;;13.13;5.65;;;410.10;1126.40;;;;;;4994215;28;20022;-76
2024/03/19 11:49:32;;;;;;;5.85;3.33;;;410.20;1126.40;;;;;;4992584;28;20026;-74
2024/03/19 11:52:05;;;;;;;7.38;4.70;;;384.40;1152.00;;;;;;4989850;28;20034;-75
2024/03/19 11:54:35;;;;;;;7.38;3.58;;;384.20;1177.60;;;;;;4992046;28;20027;-74
2024/03/19 11:57:02;;;;;;;10.20;4.75;;;384.60;1126.40;;;;;;4993518;28;20099;-77
2024/03/19 11:59:29;;;;;;;9.73;3.58;;;384.70;1152.00;;;;;;4993450;28;20015;-74
2024/03/19 12:01:59;;;;;;;8.20;4.03;;;384.70;1126.40;;;;;;4976427;28;20361;-78
2024/03/19 12:04:26;;;;;;;7.13;4.47;;;384.90;1152.00;;;;;;4965542;28;20047;-77
2024/03/19 12:06:53;;;;;;;7.35;4.38;;;409.70;1152.00;;;;;;4973926;28;20114;-77
2024/03/19 12:09:23;;;;;;;8.00;4.78;;;409.70;1203.20;;;;;;4970013;28;20015;-76
2024/03/19 12:11:50;;;;;;;11.18;5.57;;;410.00;1177.60;;;;;;4973513;28;20600;-75
2024/03/19 12:14:21;;;;;;;7.22;3.72;;;409.80;1177.60;;;;;;4954785;28;20043;-81
2024/03/19 12:16:48;;;;;;;6.85;3.83;;;409.60;1177.60;;;;;;4959269;28;20554;-81
2024/03/19 12:19:16;;;;;;;6.38;3.72;;;384.20;1177.60;;;;;;4972619;28;20035;-81
2024/03/19 12:21:43;;;;;;;10.43;3.83;;;384.60;1177.60;;;;;;4971451;28;20523;-77
2024/03/19 12:24:14;;;;;;;7.40;3.78;;;384.40;1126.40;;;;;;4973009;28;20039;-76